createdAt,value
2019-04-05T00:01:18.994Z,12.40
2019-04-05T00:04:24.665Z,11.40
2019-04-05T00:07:30.427Z,11.40
2019-04-05T00:10:36.194Z,9.80
2019-04-05T00:13:41.851Z,11.27
2019-04-05T00:16:47.714Z,11.90
2019-04-05T00:19:53.373Z,14.53
2019-04-05T00:22:59.080Z,11.10
2019-04-05T00:26:04.899Z,13.50
2019-04-05T00:29:10.687Z,12.83
2019-04-05T00:32:16.361Z,12.07
2019-04-05T00:35:22.078Z,10.17
2019-04-05T00:38:27.758Z,9.73
2019-04-05T00:41:33.444Z,8.60
2019-04-05T00:44:39.202Z,12.93
2019-04-05T00:47:45.021Z,14.10
2019-04-05T00:50:50.802Z,10.47
2019-04-05T00:53:56.598Z,13.03
2019-04-05T00:57:02.381Z,9.10
2019-04-05T01:00:09.880Z,12.70
2019-04-05T01:03:15.584Z,9.90
2019-04-05T01:06:21.419Z,16.87
2019-04-05T01:09:27.261Z,11.27
2019-04-05T01:12:34.666Z,12.03
2019-04-05T01:15:41.359Z,14.17
2019-04-05T01:18:47.253Z,9.67
2019-04-05T01:21:56.239Z,12.20
2019-04-05T01:25:02.333Z,13.37
2019-04-05T01:28:08.121Z,14.63
2019-04-05T01:31:13.822Z,16.87
2019-04-05T01:34:19.736Z,10.83
2019-04-05T01:37:26.347Z,12.07
2019-04-05T01:40:34.392Z,10.10
2019-04-05T01:43:40.137Z,14.10
2019-04-05T01:46:46.209Z,11.73
2019-04-05T01:49:52.031Z,13.90
2019-04-05T01:52:57.826Z,13.17
2019-04-05T01:56:03.637Z,11.83
2019-04-05T01:59:09.320Z,12.33
2019-04-05T02:02:15.199Z,13.60
2019-04-05T02:05:21.057Z,14.73
2019-04-05T02:08:27.142Z,11.43
2019-04-05T02:11:33.050Z,11.10
2019-04-05T02:14:38.856Z,12.63
2019-04-05T02:17:44.512Z,13.17
2019-04-05T02:20:50.286Z,11.50
2019-04-05T02:23:55.942Z,12.33
2019-04-05T02:27:01.693Z,11.50
2019-04-05T02:30:07.620Z,11.27
2019-04-05T02:33:13.521Z,15.83
2019-04-05T02:36:19.339Z,14.30
2019-04-05T02:39:25.109Z,12.83
2019-04-05T02:42:31.099Z,14.00
2019-04-05T02:45:39.945Z,11.63
2019-04-05T02:48:49.047Z,14.03
2019-04-05T02:51:56.476Z,14.87
2019-04-05T02:55:02.447Z,12.23
2019-04-05T02:58:09.164Z,15.20
2019-04-05T03:01:15.101Z,16.80
2019-04-05T03:04:20.953Z,11.70
2019-04-05T03:07:28.582Z,15.97
2019-04-05T03:11:11.669Z,16.93
2019-04-05T03:14:18.274Z,15.60
2019-04-05T03:17:24.744Z,14.43
2019-04-05T03:20:30.749Z,17.43
2019-04-05T03:23:39.535Z,17.37
2019-04-05T03:26:50.173Z,15.27
2019-04-05T03:29:56.690Z,16.17
2019-04-05T03:33:02.757Z,14.00
2019-04-05T03:36:08.980Z,13.97
2019-04-05T03:39:14.758Z,12.70
2019-04-05T03:42:21.213Z,15.13
2019-04-05T03:45:27.973Z,15.73
2019-04-05T03:48:34.612Z,14.03
2019-04-05T03:51:40.598Z,13.40
2019-04-05T03:54:46.399Z,13.03
2019-04-05T03:57:52.272Z,15.03
2019-04-05T04:00:58.535Z,15.37
2019-04-05T04:04:04.377Z,11.57
2019-04-05T04:07:10.373Z,17.73
2019-04-05T04:10:18.880Z,13.23
2019-04-05T04:13:24.851Z,18.40
2019-04-05T04:16:30.740Z,17.73
2019-04-05T04:19:37.102Z,16.07
2019-04-05T04:22:43.097Z,13.67
2019-04-05T04:25:49.891Z,15.70
2019-04-05T04:28:55.959Z,21.27
2019-04-05T04:32:01.835Z,18.23
2019-04-05T04:35:08.172Z,18.17
2019-04-05T04:38:13.994Z,18.10
2019-04-05T04:41:19.775Z,18.57
2019-04-05T04:44:26.305Z,14.60
2019-04-05T04:47:32.756Z,11.50
2019-04-05T04:50:38.668Z,12.60
2019-04-05T04:53:45.273Z,13.00
2019-04-05T04:56:51.470Z,16.80
2019-04-05T04:59:57.459Z,16.53
2019-04-05T05:03:03.623Z,14.50
2019-04-05T05:06:09.841Z,14.90
2019-04-05T05:09:15.800Z,13.43
2019-04-05T05:12:21.620Z,17.43
2019-04-05T05:15:27.571Z,18.90
2019-04-05T05:18:33.473Z,14.30
2019-04-05T05:21:39.574Z,14.90
2019-04-05T05:24:45.352Z,18.67
2019-04-05T05:27:51.407Z,17.17
2019-04-05T05:30:57.287Z,15.00
2019-04-05T05:34:03.123Z,12.87
2019-04-05T05:37:09.939Z,16.90
2019-04-05T05:40:15.849Z,18.87
2019-04-05T05:43:23.843Z,18.60
2019-04-05T05:46:29.197Z,14.00
2019-04-05T05:49:34.867Z,17.60
2019-04-05T05:52:40.851Z,24.07
2019-04-05T05:55:46.579Z,24.17
2019-04-05T05:58:55.329Z,15.63
2019-04-05T06:01:59.675Z,15.10
2019-04-05T06:05:05.888Z,15.30
2019-04-05T06:08:11.567Z,16.97
2019-04-05T06:11:17.237Z,16.20
2019-04-05T06:14:22.951Z,14.30
2019-04-05T06:17:28.809Z,13.83
2019-04-05T06:20:34.448Z,18.43
2019-04-05T06:23:40.137Z,20.10
2019-04-05T06:26:45.819Z,15.17
2019-04-05T06:29:51.684Z,14.27
2019-04-05T06:32:57.439Z,12.60
2019-04-05T06:36:03.196Z,16.67
2019-04-05T06:39:09.406Z,13.67
2019-04-05T06:42:15.298Z,17.47
2019-04-05T06:45:21.043Z,17.93
2019-04-05T06:48:29.291Z,17.23
2019-04-05T06:51:34.426Z,15.80
2019-04-05T06:54:40.154Z,13.23
2019-04-05T06:57:45.856Z,12.70
2019-04-05T07:00:57.266Z,15.20
2019-04-05T07:03:58.991Z,15.50
2019-04-05T07:07:05.791Z,13.33
2019-04-05T07:10:11.687Z,15.33
2019-04-05T07:13:17.356Z,16.73
2019-04-05T07:16:23.125Z,14.53
2019-04-05T07:19:29.016Z,16.47
2019-04-05T07:22:39.067Z,16.33
2019-04-05T07:25:42.245Z,14.60
2019-04-05T07:28:48.052Z,14.93
2019-04-05T07:31:53.753Z,15.33
2019-04-05T07:35:00.455Z,14.50
2019-04-05T07:38:06.144Z,13.57
2019-04-05T07:41:11.891Z,15.40
2019-04-05T07:44:17.575Z,14.70
2019-04-05T07:47:23.279Z,17.63
2019-04-05T07:50:28.952Z,20.60
2019-04-05T07:53:34.640Z,22.90
2019-04-05T07:56:40.343Z,20.50
2019-04-05T07:59:46.026Z,17.97
2019-04-05T08:02:51.864Z,18.90
2019-04-05T08:05:57.560Z,20.00
2019-04-05T08:09:14.752Z,18.80
2019-04-05T08:12:21.038Z,25.23
2019-04-05T08:15:27.096Z,22.60
2019-04-05T08:18:32.781Z,26.40
2019-04-05T08:21:38.724Z,20.10
2019-04-05T08:24:44.465Z,18.93
2019-04-05T08:27:50.380Z,21.70
2019-04-05T08:30:56.067Z,22.17
2019-04-05T08:34:01.796Z,19.30
2019-04-05T08:37:07.724Z,17.40
2019-04-05T08:40:13.688Z,19.77
2019-04-05T08:43:19.451Z,18.60
2019-04-05T08:46:25.148Z,27.27
2019-04-05T08:49:30.843Z,17.70
2019-04-05T08:52:36.506Z,16.30
2019-04-05T08:55:42.233Z,16.80
2019-04-05T08:58:47.925Z,17.10
2019-04-05T09:01:53.647Z,18.77
2019-04-05T09:04:59.330Z,16.33
2019-04-05T09:08:05.170Z,16.63
2019-04-05T09:11:10.931Z,15.03
2019-04-05T09:14:16.739Z,15.13
2019-04-05T09:17:22.461Z,19.10
2019-04-05T09:20:28.157Z,16.57
2019-04-05T09:23:33.975Z,13.90
2019-04-05T09:26:39.682Z,14.20
2019-04-05T09:29:45.422Z,16.67
2019-04-05T09:32:51.101Z,17.00
2019-04-05T09:35:56.813Z,21.87
2019-04-05T09:39:02.693Z,23.17
2019-04-05T09:42:08.480Z,17.63
2019-04-05T09:45:14.327Z,19.23
2019-04-05T09:48:20.063Z,22.77
2019-04-05T09:51:25.803Z,20.23
2019-04-05T09:54:31.658Z,22.37
2019-04-05T09:57:37.373Z,19.90
2019-04-05T10:00:43.142Z,18.93
2019-04-05T10:03:49.003Z,18.77
2019-04-05T10:06:54.813Z,18.43
2019-04-05T10:10:00.528Z,38.73
2019-04-05T10:13:06.243Z,16.37
2019-04-05T10:16:12.104Z,20.80
2019-04-05T10:19:17.779Z,14.63
2019-04-05T10:22:23.486Z,18.00
2019-04-05T10:25:29.265Z,18.83
2019-04-05T10:28:34.996Z,15.53
2019-04-05T10:31:40.816Z,19.50
2019-04-05T10:34:47.362Z,17.37
2019-04-05T10:37:53.105Z,15.73
2019-04-05T10:40:58.915Z,22.20
2019-04-05T10:44:06.587Z,16.07
2019-04-05T10:47:12.374Z,17.70
2019-04-05T10:50:18.780Z,20.27
2019-04-05T10:53:24.464Z,16.03
2019-04-05T10:56:30.162Z,16.83
2019-04-05T10:59:38.415Z,18.93
2019-04-05T11:02:43.395Z,18.20
2019-04-05T11:05:49.553Z,16.23
2019-04-05T11:08:55.489Z,17.30
2019-04-05T11:12:01.396Z,20.50
2019-04-05T11:15:08.087Z,19.17
2019-04-05T11:18:13.889Z,15.63
2019-04-05T11:21:19.668Z,18.83
2019-04-05T11:24:25.414Z,17.60
2019-04-05T11:27:31.118Z,17.30
2019-04-05T11:30:46.137Z,16.87
2019-04-05T11:33:51.885Z,17.10
2019-04-05T11:36:58.370Z,24.93
2019-04-05T11:40:05.159Z,21.00
2019-04-05T11:43:11.094Z,16.73
2019-04-05T11:46:18.275Z,21.20
2019-04-05T11:49:25.321Z,20.17
2019-04-05T11:52:31.205Z,16.93
2019-04-05T11:55:37.073Z,20.63
2019-04-05T11:58:45.040Z,16.97
2019-04-05T12:01:57.870Z,23.17
2019-04-05T12:05:03.673Z,22.43
2019-04-05T12:08:09.491Z,18.03
2019-04-05T12:11:18.022Z,23.23
2019-04-05T12:14:30.250Z,18.37
2019-04-05T12:17:31.218Z,18.63
2019-04-05T12:20:47.866Z,19.23
2019-04-05T12:23:44.630Z,19.70
2019-04-05T12:26:50.342Z,19.03
2019-04-05T12:29:56.008Z,19.57
2019-04-05T12:33:12.998Z,19.17
2019-04-05T12:36:09.392Z,20.53
2019-04-05T12:39:15.425Z,17.07
2019-04-05T12:42:21.104Z,15.70
2019-04-05T12:45:26.837Z,15.93
2019-04-05T12:48:32.611Z,22.03
2019-04-05T12:51:38.296Z,26.03
2019-04-05T12:54:43.971Z,17.00
2019-04-05T12:57:49.676Z,18.17
2019-04-05T13:00:56.341Z,16.63
2019-04-05T13:04:02.712Z,22.13
2019-04-05T13:07:08.373Z,19.63
2019-04-05T13:10:14.257Z,27.10
2019-04-05T13:13:21.136Z,21.30
2019-04-05T13:16:26.865Z,24.50
2019-04-05T13:19:33.274Z,25.90
2019-04-05T13:22:39.017Z,26.10
2019-04-05T13:25:44.771Z,22.77
2019-04-05T13:28:50.511Z,23.57
2019-04-05T13:31:56.258Z,23.23
2019-04-05T13:35:01.939Z,23.10
2019-04-05T13:38:07.827Z,23.63
2019-04-05T13:41:13.512Z,19.70
2019-04-05T13:44:19.237Z,20.07
2019-04-05T13:47:24.916Z,21.20
2019-04-05T13:50:30.651Z,21.60
2019-04-05T13:53:36.360Z,21.80
2019-04-05T13:56:42.057Z,19.63
2019-04-05T13:59:49.025Z,18.83
2019-04-05T14:02:54.755Z,25.80
2019-04-05T14:06:00.500Z,22.00
2019-04-05T14:09:10.203Z,17.07
2019-04-05T14:12:16.554Z,25.93
2019-04-05T14:15:22.371Z,17.10
2019-04-05T14:18:28.150Z,19.87
2019-04-05T14:21:40.199Z,19.40
2019-04-05T14:24:41.244Z,17.53
2019-04-05T14:27:47.011Z,16.63
2019-04-05T14:30:52.795Z,22.13
2019-04-05T14:33:58.813Z,19.90
2019-04-05T14:37:04.489Z,20.10
2019-04-05T14:40:13.866Z,16.83
2019-04-05T14:43:21.177Z,17.87
2019-04-05T14:46:28.992Z,17.30
2019-04-05T14:49:33.630Z,19.10
2019-04-05T14:52:39.522Z,18.33
2019-04-05T14:55:45.213Z,18.60
2019-04-05T14:58:50.913Z,21.00
2019-04-05T15:01:56.716Z,25.80
2019-04-05T15:05:02.410Z,22.67
2019-04-05T15:08:08.564Z,17.73
2019-04-05T15:11:15.357Z,16.23
2019-04-05T15:14:21.172Z,24.90
2019-04-05T15:17:27.033Z,22.43
2019-04-05T15:20:34.843Z,26.37
2019-04-05T15:23:41.323Z,18.07
2019-04-05T15:26:47.252Z,19.90
2019-04-05T15:29:55.354Z,25.20
2019-04-05T15:33:03.508Z,17.47
2019-04-05T15:36:09.167Z,25.80
2019-04-05T15:39:14.883Z,20.43
2019-04-05T15:42:20.561Z,20.73
2019-04-05T15:45:26.422Z,17.40
2019-04-05T15:48:32.117Z,21.77
2019-04-05T15:51:37.917Z,17.50
2019-04-05T15:54:43.680Z,19.50
2019-04-05T15:57:49.366Z,23.73
2019-04-05T16:00:55.156Z,18.70
2019-04-05T16:04:02.714Z,18.23
2019-04-05T16:07:08.594Z,18.93
2019-04-05T16:10:14.887Z,19.63
2019-04-05T16:13:20.580Z,16.90
2019-04-05T16:16:26.704Z,25.20
2019-04-05T16:19:32.401Z,17.40
2019-04-05T16:22:38.110Z,16.50
2019-04-05T16:25:43.775Z,17.20
2019-04-05T16:28:49.461Z,18.40
2019-04-05T16:31:55.219Z,17.00
2019-04-05T16:35:00.906Z,18.83
2019-04-05T16:38:06.687Z,25.97
2019-04-05T16:41:12.443Z,25.53
2019-04-05T16:44:18.120Z,24.57
2019-04-05T16:47:23.850Z,23.13
2019-04-05T16:50:29.553Z,25.43
2019-04-05T16:53:35.322Z,33.50
2019-04-05T16:56:41.232Z,24.87
2019-04-05T16:59:46.969Z,25.87
2019-04-05T17:02:52.645Z,28.30
2019-04-05T17:05:58.804Z,29.40
2019-04-05T17:09:05.503Z,30.93
2019-04-05T17:12:12.989Z,28.70
2019-04-05T17:15:18.780Z,30.37
2019-04-05T17:18:24.517Z,27.63
2019-04-05T17:21:30.212Z,25.97
2019-04-05T17:24:35.881Z,35.73
2019-04-05T17:27:41.616Z,34.03
2019-04-05T17:30:47.600Z,35.17
2019-04-05T17:33:53.382Z,26.70
2019-04-05T17:36:59.170Z,33.80
2019-04-05T17:40:05.957Z,38.00
2019-04-05T17:43:12.084Z,38.57
2019-04-05T17:46:17.881Z,38.37
2019-04-05T17:49:23.583Z,37.33
2019-04-05T17:52:29.388Z,34.27
2019-04-05T17:55:35.349Z,31.70
2019-04-05T17:58:41.078Z,36.20
2019-04-05T18:01:46.894Z,37.00
2019-04-05T18:04:54.203Z,40.33
2019-04-05T18:08:00.057Z,40.93
2019-04-05T18:11:06.086Z,38.30
2019-04-05T18:14:12.086Z,40.13
2019-04-05T18:17:17.780Z,39.53
2019-04-05T18:20:23.464Z,40.17
2019-04-05T18:23:29.170Z,36.67
2019-04-05T18:26:34.961Z,33.97
2019-04-05T18:29:40.667Z,35.23
2019-04-05T18:32:46.512Z,46.27
2019-04-05T18:35:52.210Z,89.30
2019-04-05T18:38:57.948Z,75.60
2019-04-05T18:42:03.765Z,53.53
2019-04-05T18:45:09.622Z,54.80
2019-04-05T18:48:15.428Z,70.27
2019-04-05T18:51:21.195Z,57.83
2019-04-05T18:54:27.033Z,50.20
2019-04-05T18:57:32.694Z,42.03
2019-04-05T19:00:38.373Z,39.40
2019-04-05T19:03:44.084Z,31.70
2019-04-05T19:06:49.931Z,27.67
2019-04-05T19:09:55.710Z,23.27
2019-04-05T19:13:01.449Z,23.03
2019-04-05T19:16:07.287Z,21.90
2019-04-05T19:19:12.979Z,22.33
2019-04-05T19:22:18.693Z,24.43
2019-04-05T19:25:24.517Z,20.07
2019-04-05T19:28:30.231Z,18.37
2019-04-05T19:50:21.718Z,16.67
2019-04-05T19:53:27.393Z,20.27
2019-04-05T19:56:33.161Z,19.37
2019-04-05T19:59:38.821Z,21.53
2019-04-05T20:02:44.524Z,18.47
2019-04-05T20:05:50.220Z,25.80
2019-04-05T20:08:56.052Z,27.27
2019-04-05T20:12:01.787Z,21.57
2019-04-05T20:15:08.317Z,18.90
2019-04-05T20:18:14.020Z,19.03
2019-04-05T20:21:19.697Z,17.87
2019-04-05T20:24:25.700Z,19.57
2019-04-05T20:27:31.446Z,23.67
2019-04-05T20:30:37.212Z,24.00
2019-04-05T20:33:43.067Z,24.20
2019-04-05T20:36:48.819Z,21.40
2019-04-05T20:39:54.499Z,21.90
2019-04-05T20:43:00.285Z,18.50
2019-04-05T20:46:07.283Z,21.13
2019-04-05T20:49:12.978Z,22.17
2019-04-05T20:52:18.713Z,22.97
2019-04-05T20:55:24.389Z,18.77
2019-04-05T20:58:30.184Z,18.13
2019-04-05T21:01:35.840Z,20.87
2019-04-05T21:04:41.677Z,13.50
2019-04-05T21:07:47.435Z,20.13
2019-04-05T21:10:53.139Z,18.80
2019-04-05T21:13:58.923Z,22.17
2019-04-05T21:17:04.703Z,19.83
2019-04-05T21:20:10.675Z,22.90
2019-04-05T21:23:16.388Z,22.20
2019-04-05T21:26:22.068Z,19.57
2019-04-05T21:29:27.806Z,19.37
2019-04-05T21:32:33.522Z,21.97
2019-04-05T21:35:39.213Z,23.37
2019-04-05T21:38:44.954Z,21.63
2019-04-05T21:41:50.650Z,20.83
2019-04-05T21:44:56.444Z,19.17
2019-04-05T21:48:02.172Z,15.13
2019-04-05T21:51:07.904Z,19.13
2019-04-05T21:54:13.622Z,22.17
2019-04-05T21:57:19.303Z,19.50
2019-04-05T22:00:28.656Z,18.47
2019-04-05T22:03:36.033Z,18.37
2019-04-05T22:06:41.687Z,19.33
2019-04-05T22:09:47.350Z,18.50
2019-04-05T22:12:53.009Z,25.83
2019-04-05T22:15:58.695Z,20.23
2019-04-05T22:19:05.368Z,19.30
2019-04-05T22:22:11.080Z,20.60
2019-04-05T22:25:18.204Z,21.20
2019-04-05T22:28:23.874Z,19.23
2019-04-05T22:31:29.604Z,19.93
2019-04-05T22:34:35.329Z,26.47
2019-04-05T22:37:41.089Z,20.07
2019-04-05T22:40:46.793Z,31.37
2019-04-05T22:43:53.604Z,21.97
2019-04-05T22:46:59.309Z,21.80
2019-04-05T22:50:05.113Z,20.23
2019-04-05T22:53:10.859Z,23.27
2019-04-05T22:56:16.624Z,20.37
2019-04-05T22:59:22.303Z,18.23
2019-04-05T23:02:27.986Z,21.33
2019-04-05T23:05:33.889Z,21.23
2019-04-05T23:08:40.667Z,21.47
2019-04-05T23:11:46.439Z,26.60
2019-04-05T23:14:52.129Z,20.63
2019-04-05T23:17:57.857Z,21.57
2019-04-05T23:21:03.640Z,23.07
2019-04-05T23:24:09.323Z,23.30
2019-04-05T23:27:15.276Z,21.93
2019-04-05T23:30:22.684Z,24.60
2019-04-05T23:33:28.409Z,21.83
2019-04-05T23:36:34.140Z,18.83
2019-04-05T23:39:39.822Z,18.47
2019-04-05T23:42:45.545Z,20.20
2019-04-05T23:45:51.229Z,27.63
2019-04-05T23:48:56.962Z,18.77
2019-04-05T23:52:02.778Z,25.03
2019-04-05T23:55:08.766Z,22.17
2019-04-05T23:58:14.448Z,18.83
